Eixample, Spain
Current Conditions -  °F | °C
As of 9:00 AM on Tuesday 27 Jan 2015 (Local Time) from LEBL Reporting Station
Few Clouds Few Clouds  
Wind Chill: 39°   Ceiling: Unl
Heat Index: 45°   Visibility: 6mi
Dew Point: 36°   Wind: 10mph
Humidity: 71%   Direction: 330°NNW
Pressure: 30.18"   Gusts: NA
Location:  41.39°N, 2.16°E
Report Text: LEBL 270800Z 33009KT 310V010 9999 FEW040 07/02 Q1022 NOSIG
Loading
Personal Weather Stations






























Interactive Weather Map New forecast layout! Learn more

10-Day Weather Forecast

Advertisements
Track Severe Weather on mobile